Time;durP1;ratioP1;P1;durP2;ratioP2;P2;SDS_P1;SDS_P2;PMS_P1;PMS_P2;Temp;Humidity;BMP_temperature;BMP_pressure;BME280_temperature;BME280_humidity;BME280_pressure;Samples;Min_cycle;Max_cycle;Signal;HPM_P1;HPM_P2
2021/12/23 00:00:36;;;;;;;;;48.25;34.50;;;;;1.97;66.74;100943.50;5135126;27;46046;-79
2021/12/23 00:03:03;;;;;;;;;48.25;35.75;;;;;2.09;66.84;100963.81;5135606;27;45563;-77
2021/12/23 00:05:29;;;;;;;;;56.75;34.00;;;;;2.03;66.37;100956.25;5135479;27;45611;-78
2021/12/23 00:07:55;;;;;;;;;40.50;31.00;;;;;2.04;66.21;100954.50;5135228;27;45662;-77
2021/12/23 00:10:20;;;;;;;;;43.00;33.25;;;;;2.08;66.37;100956.09;5134875;27;46476;-78
2021/12/23 00:12:46;;;;;;;;;42.00;29.75;;;;;2.04;66.78;100954.50;5135332;27;45685;-79
2021/12/23 00:16:03;;;;;;;;;45.00;34.75;;;;;2.04;66.74;100945.03;5139654;27;45765;-76
2021/12/23 00:23:24;;;;;;;;;37.75;32.25;;;;;1.97;67.14;100917.69;5142216;27;45714;-79
2021/12/23 00:25:52;;;;;;;;;38.00;30.50;;;;;1.99;66.42;100933.13;5143160;27;45646;-77
2021/12/23 00:28:18;;;;;;;;;33.75;31.00;;;;;1.96;66.48;100920.31;5144261;27;45694;-78
2021/12/23 00:30:44;;;;;;;;;44.50;34.75;;;;;1.92;66.69;100924.72;5144678;27;46457;-77
2021/12/23 00:33:09;;;;;;;;;40.25;32.00;;;;;1.88;66.62;100911.97;5150177;27;46115;-77
2021/12/23 00:35:36;;;;;;;;;38.00;30.25;;;;;1.84;66.73;100910.34;5155752;27;45713;-77
2021/12/23 00:38:07;;;;;;;;;33.25;25.25;;;;;1.82;67.42;100904.38;5150541;27;46234;-79
2021/12/23 00:40:32;;;;;;;;;42.75;36.00;;;;;1.93;67.01;100923.00;5154277;27;45794;-77
2021/12/23 00:42:58;;;;;;;;;38.00;31.00;;;;;1.86;67.33;100912.00;5153814;27;45665;-77
2021/12/23 00:45:24;;;;;;;;;35.50;30.50;;;;;1.91;67.04;100923.03;5146237;27;45697;-78
2021/12/23 00:47:49;;;;;;;;;39.25;30.75;;;;;1.76;67.00;100887.34;5154021;27;45720;-77
2021/12/23 00:50:15;;;;;;;;;45.00;36.25;;;;;1.76;67.03;100883.91;5158139;27;45733;-78
2021/12/23 00:56:02;;;;;;;;;42.75;31.00;;;;;1.89;67.61;100898.16;5151164;27;45725;-78
2021/12/23 00:58:28;;;;;;;;;38.00;31.75;;;;;1.87;67.05;100893.03;5140855;27;46296;-78
2021/12/23 01:00:54;;;;;;;;;45.25;35.25;;;;;1.90;67.27;100886.91;5122177;27;46168;-79
2021/12/23 01:03:19;;;;;;;;;52.00;37.75;;;;;1.69;67.35;100860.00;5139164;27;45829;-78
2021/12/23 01:05:45;;;;;;;;;46.00;34.00;;;;;1.88;67.39;100884.38;5139074;27;45644;-78
2021/12/23 01:08:10;;;;;;;;;52.00;36.25;;;;;1.89;67.13;100877.50;5138593;27;46303;-78
2021/12/23 01:10:36;;;;;;;;;46.25;30.50;;;;;1.81;67.11;100863.94;5119713;27;46286;-78
2021/12/23 01:13:04;;;;;;;;;39.50;32.75;;;;;1.88;67.32;100881.81;5138229;27;46094;-78
2021/12/23 01:18:14;;;;;;;;;43.25;34.25;;;;;1.90;67.62;100882.59;5137931;27;45707;-78
2021/12/23 01:20:52;;;;;;;;;15.75;9.25;;;;;1.80;67.09;100863.09;5118756;27;46229;-79
2021/12/23 01:26:40;;;;;;;;;38.00;33.25;;;;;1.86;67.34;100874.97;5137583;27;45658;-78
2021/12/23 01:29:06;;;;;;;;;45.25;33.00;;;;;1.91;67.23;100871.38;5138212;27;46602;-78
2021/12/23 01:31:33;;;;;;;;;38.75;33.50;;;;;1.89;67.12;100874.91;5139108;27;46077;-78
2021/12/23 01:33:59;;;;;;;;;41.50;36.50;;;;;1.90;67.62;100867.09;5139023;27;45739;-78
2021/12/23 01:36:25;;;;;;;;;44.75;33.00;;;;;1.90;67.03;100866.25;5138355;27;45497;-78
2021/12/23 01:38:52;;;;;;;;;39.25;32.75;;;;;1.91;67.52;100866.19;5138013;27;46553;-78
2021/12/23 01:41:17;;;;;;;;;48.75;30.25;;;;;1.86;67.04;100850.00;5119064;27;47520;-78
2021/12/23 01:43:43;;;;;;;;;53.75;36.75;;;;;1.92;67.23;100862.72;5138043;27;45514;-79
2021/12/23 01:46:09;;;;;;;;;38.25;28.25;;;;;1.73;67.28;100833.19;5119122;27;46039;-78
2021/12/23 01:48:35;;;;;;;;;38.75;32.50;;;;;1.93;67.56;100859.25;5137718;27;45659;-78
2021/12/23 01:51:01;;;;;;;;;42.00;33.25;;;;;1.93;67.50;100856.69;5137447;27;46231;-78
2021/12/23 01:53:27;;;;;;;;;38.75;31.50;;;;;1.79;67.79;100833.00;5137869;27;45848;-78
2021/12/23 01:55:53;;;;;;;;;42.00;36.00;;;;;1.88;68.00;100837.06;5137172;27;45702;-77
2021/12/23 01:58:19;;;;;;;;;33.25;28.75;;;;;1.91;67.17;100847.28;5137569;27;46444;-77
2021/12/23 02:00:48;;;;;;;;;36.25;30.75;;;;;1.90;67.39;100843.84;5137047;27;45635;-76
2021/12/23 02:03:14;;;;;;;;;41.25;34.50;;;;;1.82;68.07;100822.59;5138130;27;45654;-78
2021/12/23 02:05:39;;;;;;;;;39.50;31.50;;;;;1.96;67.78;100837.63;5138393;27;45722;-76
2021/12/23 02:11:26;;;;;;;;;42.00;31.75;;;;;1.95;67.49;100831.63;5136815;27;45570;-78
2021/12/23 02:13:52;;;;;;;;;42.50;33.50;;;;;1.90;67.53;100827.50;5136854;27;45669;-79
2021/12/23 02:16:18;;;;;;;;;41.00;33.00;;;;;1.98;67.91;100841.88;5136900;27;45520;-76
2021/12/23 02:18:43;;;;;;;;;41.75;35.50;;;;;1.88;68.05;100827.56;5136484;27;45781;-78
2021/12/23 02:21:08;;;;;;;;;40.25;25.50;;;;;1.99;67.44;100843.56;5117851;27;46297;-79
2021/12/23 02:26:56;;;;;;;;;37.25;31.50;;;;;2.01;67.88;100834.00;5136649;27;45579;-78
2021/12/23 02:29:21;;;;;;;;;40.00;31.50;;;;;1.76;68.20;100781.47;5136059;27;45736;-78
2021/12/23 02:31:49;;;;;;;;;41.75;33.00;;;;;2.02;68.04;100819.34;5136657;27;45556;-78
2021/12/23 02:34:16;;;;;;;;;43.75;31.25;;;;;2.02;67.43;100807.28;5136668;27;45826;-77
2021/12/23 02:36:42;;;;;;;;;46.25;33.75;;;;;2.08;67.39;100825.19;5117675;27;45541;-78
2021/12/23 02:39:07;;;;;;;;;41.00;34.50;;;;;2.01;67.64;100813.34;5136314;27;46396;-78
2021/12/23 02:41:32;;;;;;;;;41.00;34.25;;;;;2.06;67.46;100823.53;5136543;27;46087;-79
2021/12/23 02:43:58;;;;;;;;;38.50;32.50;;;;;2.01;67.92;100809.91;5136538;27;45644;-78
2021/12/23 02:46:24;;;;;;;;;51.50;34.00;;;;;2.03;67.79;100806.41;5136675;27;45788;-77
2021/12/23 02:48:49;;;;;;;;;41.75;39.00;;;;;2.14;67.86;100815.53;5136044;27;46235;-78
2021/12/23 02:51:15;;;;;;;;;44.25;35.50;;;;;2.14;68.23;100810.38;5136552;27;46284;-77
2021/12/23 02:57:04;;;;;;;;;52.00;35.75;;;;;2.12;67.81;100815.56;5134401;27;45707;-77
2021/12/23 02:59:30;;;;;;;;;49.25;37.50;;;;;2.14;68.05;100808.63;5136138;27;45666;-78
2021/12/23 03:01:55;;;;;;;;;42.50;35.25;;;;;2.15;68.15;100812.91;5136188;27;46008;-78
2021/12/23 03:04:21;;;;;;;;;48.75;41.00;;;;;2.02;67.74;100788.34;5136250;27;45641;-76
2021/12/23 03:06:46;;;;;;;;;39.75;31.00;;;;;2.18;67.75;100806.78;5136367;27;45550;-77
2021/12/23 03:09:12;;;;;;;;;53.00;40.00;;;;;2.14;68.01;100794.84;5135867;27;46234;-77
2021/12/23 03:11:40;;;;;;;;;40.50;34.75;;;;;2.21;67.84;100798.94;5136620;27;45726;-78
2021/12/23 03:14:06;;;;;;;;;42.75;35.75;;;;;2.10;68.56;100782.06;5136353;27;45873;-78
2021/12/23 03:16:35;;;;;;;;;45.00;36.50;;;;;2.15;68.20;100792.22;5136496;27;45838;-78
2021/12/23 03:19:03;;;;;;;;;37.25;33.25;;;;;2.18;68.03;100792.13;5135698;27;45730;-77
2021/12/23 03:21:29;;;;;;;;;45.75;36.25;;;;;2.20;67.84;100784.31;5136169;27;46499;-78
2021/12/23 03:27:16;;;;;;;;;44.25;35.25;;;;;2.13;68.08;100781.09;5135927;27;45659;-78
2021/12/23 03:29:41;;;;;;;;;32.75;28.50;;;;;2.18;68.06;100780.94;5135438;27;46718;-78
2021/12/23 03:32:07;;;;;;;;;42.50;38.00;;;;;2.18;68.34;100766.28;5136015;27;46163;-78
2021/12/23 03:34:32;;;;;;;;;43.75;31.50;;;;;2.21;67.84;100771.34;5135638;27;45819;-78
2021/12/23 03:36:58;;;;;;;;;52.50;41.50;;;;;2.24;68.49;100770.38;5136329;27;45413;-78
2021/12/23 03:39:24;;;;;;;;;40.00;33.75;;;;;2.19;68.51;100765.38;5135210;27;46579;-78
2021/12/23 03:41:49;;;;;;;;;44.75;33.25;;;;;2.25;68.27;100772.09;5117137;27;45850;-78
2021/12/23 03:44:15;;;;;;;;;50.25;32.25;;;;;2.24;67.89;100767.81;5135549;27;45884;-77
2021/12/23 03:46:41;;;;;;;;;46.00;35.75;;;;;2.26;67.90;100764.28;5135856;27;45709;-78
2021/12/23 03:49:07;;;;;;;;;41.50;35.00;;;;;2.27;68.16;100749.63;5134312;27;46283;-78
2021/12/23 03:51:33;;;;;;;;;43.75;35.25;;;;;2.25;67.94;100756.56;5135637;27;45774;-78
2021/12/23 03:57:20;;;;;;;;;44.50;34.75;;;;;2.27;68.10;100750.44;5134799;27;45724;-78
2021/12/23 03:59:45;;;;;;;;;46.75;38.25;;;;;2.26;68.21;100753.94;5135131;27;45711;-78
2021/12/23 04:02:10;;;;;;;;;38.75;33.75;;;;;2.20;68.22;100728.31;5135365;27;46075;-77
2021/12/23 04:04:37;;;;;;;;;33.75;25.50;;;;;2.28;68.03;100746.97;5135375;27;45652;-77
2021/12/23 04:07:03;;;;;;;;;42.50;31.75;;;;;2.21;68.11;100724.84;5135244;27;45855;-78
2021/12/23 04:09:29;;;;;;;;;48.50;32.25;;;;;2.29;68.10;100734.88;5135222;27;46819;-78
2021/12/23 04:11:54;;;;;;;;;35.50;31.50;;;;;2.31;68.38;100739.13;5135072;27;46129;-78
2021/12/23 04:14:19;;;;;;;;;34.50;31.75;;;;;2.29;68.59;100729.72;5135253;27;45485;-78
2021/12/23 04:16:45;;;;;;;;;50.75;36.00;;;;;2.17;68.28;100710.31;5135319;27;45545;-77
2021/12/23 04:19:11;;;;;;;;;39.25;31.00;;;;;2.31;68.53;100731.38;5134458;27;45770;-78
2021/12/23 04:21:38;;;;;;;;;34.00;27.50;;;;;2.24;68.31;100714.38;5134874;27;46346;-77
2021/12/23 04:27:25;;;;;;;;;39.50;34.50;;;;;2.28;68.51;100697.00;5134929;27;45575;-78
2021/12/23 04:29:50;;;;;;;;;43.75;33.25;;;;;2.28;68.33;100708.19;5134677;27;46976;-78
2021/12/23 04:32:16;;;;;;;;;55.25;39.75;;;;;2.31;68.65;100715.00;5134618;27;45678;-76
2021/12/23 04:34:41;;;;;;;;;32.50;30.25;;;;;2.22;68.71;100699.81;5134628;27;45766;-78
2021/12/23 04:37:06;;;;;;;;;50.25;44.25;;;;;2.14;68.34;100683.75;5135014;27;45498;-78
2021/12/23 04:39:32;;;;;;;;;36.25;32.75;;;;;2.32;68.41;100707.19;5134788;27;45683;-78
2021/12/23 04:41:57;;;;;;;;;48.75;38.00;;;;;2.30;68.76;100690.91;5134610;27;46085;-79
2021/12/23 04:44:22;;;;;;;;;43.50;35.50;;;;;2.35;68.36;100701.91;5134339;27;45589;-78
2021/12/23 04:46:48;;;;;;;;;50.25;39.75;;;;;2.23;68.66;100678.25;5135187;27;45779;-78
2021/12/23 04:49:13;;;;;;;;;46.00;38.75;;;;;2.38;68.71;100701.78;5133760;27;45793;-78
2021/12/23 04:51:39;;;;;;;;;49.25;36.25;;;;;2.40;68.91;100701.75;5135084;27;45647;-78
2021/12/23 04:57:26;;;;;;;;;39.50;35.50;;;;;2.43;68.83;100697.31;5134398;27;45781;-78
2021/12/23 04:59:51;;;;;;;;;41.25;34.75;;;;;2.32;68.63;100672.75;5135761;27;45737;-77
2021/12/23 05:02:17;;;;;;;;;36.75;31.25;;;;;2.23;68.72;100653.25;5138246;27;45618;-78
2021/12/23 05:04:42;;;;;;;;;55.75;42.50;;;;;2.27;68.30;100649.63;5138317;27;45756;-78
2021/12/23 05:07:07;;;;;;;;;41.25;36.50;;;;;2.46;68.76;100686.03;5138252;27;45563;-77
2021/12/23 05:12:55;;;;;;;;;35.25;31.25;;;;;2.51;68.81;100692.72;5137791;27;45766;-78
2021/12/23 05:15:21;;;;;;;;;37.75;31.50;;;;;2.52;68.86;100689.22;5138111;27;45575;-79
2021/12/23 05:17:47;;;;;;;;;48.50;38.25;;;;;2.48;68.64;100681.66;5138035;27;45508;-78
2021/12/23 05:20:15;;;;;;;;;43.25;32.25;;;;;2.55;68.95;100683.09;5137569;27;45621;-79
2021/12/23 05:22:41;;;;;;;;;42.50;33.25;;;;;2.51;68.86;100669.44;5137526;27;46368;-78
2021/12/23 05:25:09;;;;;;;;;42.75;38.50;;;;;2.52;68.96;100658.22;5119215;27;45665;-78
2021/12/23 05:27:35;;;;;;;;;50.25;36.00;;;;;2.39;68.59;100627.69;5138105;27;45672;-77
2021/12/23 05:30:01;;;;;;;;;40.00;33.00;;;;;2.46;68.76;100640.31;5137772;27;46343;-78
2021/12/23 05:32:27;;;;;;;;;45.75;38.25;;;;;2.61;68.97;100658.75;5137935;27;46370;-78
2021/12/23 05:34:52;;;;;;;;;35.00;33.25;;;;;2.61;68.84;100650.97;5137633;27;45700;-77
2021/12/23 05:37:18;;;;;;;;;54.50;36.50;;;;;2.59;68.79;100642.47;5138155;27;45755;-78
2021/12/23 05:43:05;;;;;;;;;43.25;35.00;;;;;2.65;68.92;100647.38;5137816;27;46183;-78
2021/12/23 05:45:30;;;;;;;;;37.75;29.50;;;;;2.65;68.47;100649.97;5138224;27;45563;-79
2021/12/23 05:47:56;;;;;;;;;50.75;37.25;;;;;2.58;68.70;100639.03;5137616;27;45557;-78
2021/12/23 05:50:23;;;;;;;;;42.50;36.25;;;;;2.65;68.84;100648.22;5137214;27;46507;-78
2021/12/23 05:52:50;;;;;;;;;48.25;33.50;;;;;2.66;69.27;100649.91;5137135;27;46049;-78
2021/12/23 05:55:17;;;;;;;;;43.00;32.25;;;;;2.62;68.94;100639.75;5137545;27;45672;-78
2021/12/23 05:57:43;;;;;;;;;43.75;34.50;;;;;2.60;68.56;100634.63;5137123;27;45641;-78
2021/12/23 06:00:13;;;;;;;;;50.50;38.25;;;;;2.70;68.94;100650.66;5137418;27;46207;-78
2021/12/23 06:02:38;;;;;;;;;43.25;36.50;;;;;2.70;68.90;100642.91;5137359;27;46441;-78
2021/12/23 06:05:05;;;;;;;;;52.25;43.25;;;;;2.71;68.73;100653.16;5118362;27;45974;-78
2021/12/23 06:07:31;;;;;;;;;35.00;31.00;;;;;2.63;68.92;100625.94;5137348;27;45721;-78
2021/12/23 06:13:18;;;;;;;;;35.00;32.50;;;;;2.71;68.74;100641.97;5136782;27;46110;-79
2021/12/23 06:15:43;;;;;;;;;42.75;36.50;;;;;2.68;69.04;100635.19;5136634;27;45758;-79
2021/12/23 06:18:09;;;;;;;;;39.00;34.00;;;;;2.64;68.70;100636.22;5136879;27;45855;-79
2021/12/23 06:20:34;;;;;;;;;43.50;36.25;;;;;2.75;69.03;100646.16;5137532;27;45634;-77
2021/12/23 06:23:00;;;;;;;;;41.25;33.50;;;;;2.73;68.77;100643.63;5137194;27;45680;-78
2021/12/23 06:25:25;;;;;;;;;42.75;36.00;;;;;2.68;68.95;100634.34;5137164;27;45954;-78
2021/12/23 06:27:50;;;;;;;;;49.50;39.00;;;;;2.63;68.93;100623.34;5136500;27;45714;-78
2021/12/23 06:30:18;;;;;;;;;50.00;37.00;;;;;2.74;68.96;100642.72;5117486;27;48319;-79
2021/12/23 06:32:50;;;;;;;;;41.00;39.75;;;;;2.72;69.01;100643.66;5136526;27;46137;-76
2021/12/23 06:35:16;;;;;;;;;38.50;36.25;;;;;2.76;69.35;100655.56;5136681;27;45664;-78
2021/12/23 06:37:43;;;;;;;;;46.75;37.00;;;;;2.77;68.64;100665.03;5136655;27;45622;-78
2021/12/23 06:43:30;;;;;;;;;55.25;42.00;;;;;2.72;68.68;100652.28;5136128;27;45824;-78
2021/12/23 06:45:55;;;;;;;;;51.75;39.50;;;;;2.78;69.02;100659.78;5137066;27;45630;-78
2021/12/23 06:48:20;;;;;;;;;51.00;37.50;;;;;2.70;68.74;100645.47;5135720;27;45826;-77
2021/12/23 06:50:46;;;;;;;;;42.25;38.50;;;;;2.82;68.86;100665.69;5136485;27;46253;-79
2021/12/23 06:53:15;;;;;;;;;44.50;37.25;;;;;2.68;68.63;100629.19;5136276;27;46060;-79
2021/12/23 06:55:41;;;;;;;;;44.25;41.75;;;;;2.79;68.94;100643.38;5117600;27;45965;-78
2021/12/23 06:58:07;;;;;;;;;52.00;36.75;;;;;2.85;68.94;100661.25;5136064;27;45765;-77
2021/12/23 07:00:32;;;;;;;;;45.25;38.00;;;;;2.62;68.70;100604.38;5136063;27;46648;-79
2021/12/23 07:02:58;;;;;;;;;40.50;35.00;;;;;2.86;69.25;100652.56;5135749;27;45626;-77
2021/12/23 07:05:24;;;;;;;;;46.75;42.25;;;;;2.74;69.14;100632.38;5135763;27;45853;-78
2021/12/23 07:13:39;;;;;;;;;50.00;41.00;;;;;2.91;69.07;100665.34;5135052;27;45604;-78
2021/12/23 07:16:04;;;;;;;;;47.50;38.50;;;;;2.92;69.03;100654.91;5136155;27;45822;-78
2021/12/23 07:18:30;;;;;;;;;40.75;33.25;;;;;2.78;69.04;100640.84;5136024;27;45706;-78
2021/12/23 07:20:55;;;;;;;;;40.00;37.50;;;;;2.94;68.93;100662.63;5135938;27;45578;-77
2021/12/23 07:23:20;;;;;;;;;51.25;39.75;;;;;2.95;69.00;100660.00;5135051;27;45677;-78
2021/12/23 07:25:46;;;;;;;;;46.00;36.50;;;;;2.95;69.05;100662.59;5136797;27;45687;-78
2021/12/23 07:28:11;;;;;;;;;46.75;32.25;;;;;2.99;69.00;100667.63;5136341;27;45742;-79
2021/12/23 07:30:37;;;;;;;;;50.00;36.50;;;;;2.99;69.01;100667.63;5135885;27;46439;-79
2021/12/23 07:33:02;;;;;;;;;44.75;36.00;;;;;3.01;69.02;100671.84;5135632;27;45998;-79
2021/12/23 07:35:28;;;;;;;;;48.00;42.25;;;;;3.04;68.92;100673.47;5135988;27;46033;-76
2021/12/23 07:37:53;;;;;;;;;42.75;37.25;;;;;2.86;69.05;100641.41;5135516;27;45669;-79
2021/12/23 07:46:06;;;;;;;;;49.25;38.25;;;;;3.10;68.80;100676.66;5135349;27;45625;-78
2021/12/23 07:48:32;;;;;;;;;55.25;41.00;;;;;3.03;69.03;100659.69;5135726;27;45769;-77
2021/12/23 07:50:59;;;;;;;;;40.00;35.50;;;;;3.01;68.93;100653.75;5135461;27;46515;-78
2021/12/23 07:53:24;;;;;;;;;43.25;34.75;;;;;2.85;69.20;100634.53;5135522;27;46078;-78
2021/12/23 07:59:25;;;;;;;;;41.00;34.00;;;;;3.08;69.06;100660.34;5133682;27;45749;-77
2021/12/23 08:01:50;;;;;;;;;40.00;33.00;;;;;3.19;69.08;100675.44;5135304;27;45510;-78
2021/12/23 08:04:16;;;;;;;;;46.00;42.00;;;;;3.22;68.97;100671.00;5135515;27;46539;-77
2021/12/23 08:06:42;;;;;;;;;47.00;39.00;;;;;3.25;68.93;100665.69;5135515;27;45564;-78
2021/12/23 08:09:08;;;;;;;;;45.75;38.00;;;;;3.30;69.17;100670.69;5135017;27;45504;-78
2021/12/23 08:11:34;;;;;;;;;43.75;38.25;;;;;3.34;69.11;100664.50;5135450;27;46258;-79
2021/12/23 08:13:59;;;;;;;;;45.25;40.50;;;;;3.06;68.87;100622.50;5135442;27;45781;-79
2021/12/23 08:16:24;;;;;;;;;52.75;42.25;;;;;3.38;68.77;100655.69;5135398;27;45750;-78
2021/12/23 08:18:50;;;;;;;;;41.75;36.50;;;;;3.49;69.11;100668.19;5116573;27;45658;-78
2021/12/23 08:21:15;;;;;;;;;36.75;33.50;;;;;3.47;68.91;100655.31;5135130;27;45626;-79
2021/12/23 08:23:41;;;;;;;;;49.25;42.25;;;;;3.51;68.94;100653.47;5135131;27;45741;-77
2021/12/23 08:29:28;;;;;;;;;50.50;42.00;;;;;3.63;68.75;100663.28;5134774;27;45555;-78
2021/12/23 08:31:54;;;;;;;;;49.75;36.00;;;;;3.71;68.94;100664.66;5135133;27;45565;-76
2021/12/23 08:34:20;;;;;;;;;43.25;36.50;;;;;3.73;69.04;100662.00;5135813;27;46400;-79
2021/12/23 08:36:46;;;;;;;;;46.25;41.00;;;;;3.68;69.01;100638.03;5138745;27;45769;-79
2021/12/23 08:39:11;;;;;;;;;13.75;8.50;;;;;3.78;68.96;100644.50;5138589;27;45814;-77
2021/12/23 08:41:37;;;;;;;;;41.25;36.25;;;;;3.71;68.80;100632.72;5138487;27;45831;-77
2021/12/23 08:44:03;;;;;;;;;34.75;28.00;;;;;3.94;69.11;100663.66;5138759;27;45629;-78
2021/12/23 08:46:28;;;;;;;;;49.25;40.50;;;;;3.98;68.67;100656.63;5138782;27;45732;-79
2021/12/23 08:48:54;;;;;;;;;45.75;38.75;;;;;3.95;69.06;100636.00;5138700;27;45651;-79
2021/12/23 08:51:19;;;;;;;;;50.75;41.75;;;;;4.04;68.90;100657.19;5119724;27;47533;-78
2021/12/23 08:53:44;;;;;;;;;44.50;40.75;;;;;4.05;68.83;100632.13;5138806;27;45654;-78
2021/12/23 08:59:32;;;;;;;;;38.25;36.50;;;;;4.15;68.83;100641.19;5137631;27;45840;-79
2021/12/23 09:01:58;;;;;;;;;46.75;36.50;;;;;4.23;69.02;100650.28;5138182;27;45617;-78
2021/12/23 09:04:24;;;;;;;;;49.25;39.00;;;;;4.17;69.00;100640.19;5138646;27;46149;-79
2021/12/23 09:06:49;;;;;;;;;47.25;35.25;;;;;4.25;69.00;100650.22;5138259;27;45652;-78
2021/12/23 09:09:15;;;;;;;;;48.00;39.50;;;;;4.34;68.62;100655.00;5138382;27;45579;-77
2021/12/23 09:11:40;;;;;;;;;43.25;37.50;;;;;4.25;68.43;100639.00;5138378;27;45589;-76
2021/12/23 09:14:07;;;;;;;;;43.75;36.25;;;;;4.40;68.51;100654.72;5138144;27;45707;-78
2021/12/23 09:16:32;;;;;;;;;43.75;37.00;;;;;4.46;68.74;100659.63;5137723;27;45813;-77
2021/12/23 09:18:58;;;;;;;;;45.00;38.50;;;;;4.53;68.79;100655.88;5137730;27;45578;-77
2021/12/23 09:21:24;;;;;;;;;42.75;32.50;;;;;4.60;68.59;100666.78;5137859;27;45534;-78
2021/12/23 09:23:49;;;;;;;;;43.25;38.00;;;;;4.59;68.93;100659.91;5137949;27;46289;-75
2021/12/23 09:34:54;;;;;;;;;45.00;39.25;;;;;4.81;68.35;100650.22;5137342;27;45696;-75
2021/12/23 09:37:22;;;;;;;;;49.50;41.25;;;;;4.85;68.42;100653.53;5137525;27;45583;-78
2021/12/23 09:39:53;;;;;;;;;53.25;41.00;;;;;4.89;68.72;100650.72;5118739;27;45935;-77
2021/12/23 09:42:25;;;;;;;;;51.25;40.50;;;;;4.97;68.30;100658.13;5136941;27;47327;-77
2021/12/23 09:44:57;;;;;;;;;50.25;44.00;;;;;5.02;68.87;100659.59;5137187;27;46086;-77
2021/12/23 09:47:26;;;;;;;;;47.50;42.00;;;;;5.05;68.62;100656.88;5136379;27;45594;-77
2021/12/23 09:49:52;;;;;;;;;36.75;34.25;;;;;5.09;68.58;100647.16;5137372;27;45961;-77
2021/12/23 09:52:18;;;;;;;;;53.00;43.00;;;;;5.15;68.30;100649.47;5136929;27;47018;-78
2021/12/23 09:54:44;;;;;;;;;51.25;38.75;;;;;5.11;68.45;100632.38;5136945;27;47102;-76
2021/12/23 09:57:10;;;;;;;;;44.75;38.25;;;;;5.18;68.34;100630.31;5136731;27;45710;-77
2021/12/23 09:59:35;;;;;;;;;50.25;40.25;;;;;5.26;68.54;100633.38;5118595;27;45799;-77
2021/12/23 10:02:01;;;;;;;;;44.00;35.25;;;;;5.25;68.39;100635.13;5137386;27;45705;-76
2021/12/23 10:04:26;;;;;;;;;52.00;38.50;;;;;5.29;68.88;100628.84;5137484;27;46386;-76
2021/12/23 10:06:54;;;;;;;;;49.50;41.25;;;;;5.36;68.38;100637.19;5137455;27;46141;-76
2021/12/23 10:09:37;;;;;;;;;41.25;36.75;;;;;5.39;68.70;100632.72;5137157;27;45675;-76
2021/12/23 10:38:17;;;;;;;;;40.50;33.50;;;;;5.82;69.17;100600.22;5051805;28;46133;-77
2021/12/23 10:44:04;;;;;;;;;42.00;36.25;;;;;5.90;68.76;100595.47;5052576;28;45709;-78
2021/12/23 10:46:33;;;;;;;;;38.50;36.00;;;;;5.93;68.81;100578.88;5053483;28;46473;-78
2021/12/23 10:52:16;;;;;;;;;34.75;26.25;;;;;6.07;69.39;100578.13;5012630;28;45582;-78
2021/12/23 11:00:28;;;;;;;;;32.75;25.50;;;;;6.24;69.23;100578.09;5018687;28;45709;-79
2021/12/23 11:03:12;;;;;;;;;35.75;30.25;;;;;6.30;69.62;100567.34;5052269;28;45704;-76
2021/12/23 11:05:49;;;;;;;;;35.00;31.00;;;;;6.27;69.44;100552.75;5085021;28;45649;-78
2021/12/23 11:11:14;;;;;;;;;32.50;27.50;;;;;6.44;70.17;100564.84;5083450;28;45688;-76
2021/12/23 11:44:34;;;;;;;;;27.75;25.50;;;;;7.25;70.30;100539.41;5135793;27;46098;-76
2021/12/23 11:47:07;;;;;;;;;24.75;22.25;;;;;7.25;70.32;100535.03;5134721;27;45553;-77
2021/12/23 11:49:35;;;;;;;;;31.00;27.25;;;;;7.36;70.41;100540.47;5135694;27;45630;-74
2021/12/23 11:52:02;;;;;;;;;28.25;25.25;;;;;7.43;70.52;100546.16;5135254;27;45845;-75
2021/12/23 12:01:16;;;;;;;;;29.75;22.00;;;;;7.57;70.93;100533.97;5134907;27;45727;-76
2021/12/23 12:03:57;;;;;;;;;27.25;25.00;;;;;7.63;70.97;100519.72;5134996;27;46722;-77
2021/12/23 12:06:38;;;;;;;;;26.50;18.75;;;;;7.69;70.89;100531.56;5134951;27;46489;-75
2021/12/23 12:09:12;;;;;;;;;29.75;23.50;;;;;7.75;70.96;100521.59;5135418;27;45829;-78
2021/12/23 12:15:01;;;;;;;;;28.75;23.75;;;;;7.82;71.08;100507.28;5138926;27;45711;-76
2021/12/23 12:17:26;;;;;;;;;27.00;21.75;;;;;7.87;71.18;100506.97;5139332;27;46094;-78
2021/12/23 12:19:52;;;;;;;;;32.75;24.25;;;;;7.89;71.04;100498.13;5138968;27;45808;-78
2021/12/23 12:22:45;;;;;;;;;27.75;23.00;;;;;7.94;70.95;100490.84;5139059;27;45659;-79
2021/12/23 12:25:44;;;;;;;;;28.50;26.75;;;;;7.97;71.17;100500.25;5138515;27;46607;-78
2021/12/23 12:28:30;;;;;;;;;25.75;22.75;;;;;8.00;71.06;100489.63;5131765;27;46177;-78
2021/12/23 12:31:05;;;;;;;;;29.50;25.50;;;;;8.01;71.23;100488.69;5139099;27;45895;-78
2021/12/23 12:33:33;;;;;;;;;26.75;23.00;;;;;8.06;71.01;100486.63;5139059;27;45768;-79
2021/12/23 12:36:02;;;;;;;;;28.50;24.75;;;;;8.10;71.11;100479.47;5138775;27;45646;-77
2021/12/23 12:38:45;;;;;;;;;28.25;23.25;;;;;8.11;71.26;100471.53;5138352;27;46095;-77
2021/12/23 12:41:16;;;;;;;;;33.00;25.50;;;;;8.17;71.22;100463.31;5138497;27;45909;-77
2021/12/23 12:43:45;;;;;;;;;30.00;25.50;;;;;8.23;71.19;100460.31;5138459;27;45877;-78
2021/12/23 12:46:15;;;;;;;;;27.50;26.75;;;;;8.28;70.91;100460.03;5138195;27;47348;-76
2021/12/23 12:48:56;;;;;;;;;29.25;26.75;;;;;8.34;71.13;100462.28;5137897;27;46301;-76
2021/12/23 12:51:27;;;;;;;;;28.75;24.00;;;;;8.37;71.16;100454.22;5138168;27;45716;-77
2021/12/23 12:54:03;;;;;;;;;24.75;22.00;;;;;8.43;71.08;100457.28;5138456;27;45663;-77
2021/12/23 12:56:30;;;;;;;;;24.50;20.75;;;;;8.49;71.05;100460.44;5137980;27;46487;-79
2021/12/23 12:58:55;;;;;;;;;21.50;19.25;;;;;8.53;71.10;100464.56;5138178;27;46277;-78
2021/12/23 13:01:34;;;;;;;;;36.75;25.00;;;;;8.58;71.08;100478.97;5137953;27;45500;-77
2021/12/23 13:04:02;;;;;;;;;31.50;25.25;;;;;8.63;70.98;100476.06;5138937;27;45672;-78
2021/12/23 13:06:39;;;;;;;;;28.75;24.75;;;;;8.66;71.05;100476.69;5138244;27;46445;-78
2021/12/23 13:09:06;;;;;;;;;27.00;23.50;;;;;8.74;70.91;100463.97;5138000;27;46170;-79
2021/12/23 13:11:35;;;;;;;;;21.75;20.50;;;;;8.80;70.98;100463.56;5119607;27;45852;-75
2021/12/23 13:14:01;;;;;;;;;28.25;23.75;;;;;8.84;71.07;100453.75;5138695;27;45621;-76
2021/12/23 13:16:28;;;;;;;;;27.25;24.50;;;;;8.89;70.88;100451.69;5138021;27;46504;-76
2021/12/23 13:19:13;;;;;;;;;29.75;25.75;;;;;8.92;71.03;100448.00;5118617;27;48267;-78
2021/12/23 13:21:43;;;;;;;;;24.00;20.75;;;;;8.98;70.90;100450.22;5137643;27;45634;-78
2021/12/23 13:24:14;;;;;;;;;27.25;22.00;;;;;8.98;70.85;100447.59;5138194;27;45596;-76
2021/12/23 13:26:40;;;;;;;;;25.75;20.50;;;;;9.06;71.00;100453.16;5137715;27;46508;-75
2021/12/23 13:29:08;;;;;;;;;26.25;24.75;;;;;9.10;70.89;100437.16;5137271;27;46092;-76
2021/12/23 13:31:36;;;;;;;;;31.00;25.00;;;;;9.13;70.76;100443.94;5137512;27;45523;-76
2021/12/23 13:34:08;;;;;;;;;27.50;23.00;;;;;9.20;70.70;100445.22;5137763;27;45743;-78
2021/12/23 13:36:39;;;;;;;;;25.25;22.00;;;;;9.24;70.79;100433.59;5119131;27;45621;-75
2021/12/23 13:39:09;;;;;;;;;28.25;23.00;;;;;9.30;70.71;100434.97;5137039;27;46311;-76
2021/12/23 13:41:39;;;;;;;;;23.75;20.75;;;;;9.35;70.88;100427.63;5137681;27;45555;-77
2021/12/23 13:44:27;;;;;;;;;27.75;22.25;;;;;9.38;70.67;100417.81;5137565;27;45689;-78
2021/12/23 13:47:14;;;;;;;;;26.00;25.25;;;;;9.47;70.54;100430.25;5137160;27;45613;-76
2021/12/23 13:49:50;;;;;;;;;26.00;22.25;;;;;9.52;70.38;100425.53;5137418;27;46369;-76
2021/12/23 13:52:42;;;;;;;;;24.00;22.75;;;;;9.58;70.34;100421.66;5137464;27;45904;-80
2021/12/23 13:58:29;;;;;;;;;23.25;21.75;;;;;9.74;70.43;100416.19;5137023;27;45729;-79
2021/12/23 14:00:55;;;;;;;;;26.50;22.25;;;;;9.80;70.30;100415.75;5137008;27;47316;-77
2021/12/23 14:03:21;;;;;;;;;28.00;23.00;;;;;9.79;70.46;100399.22;5137222;27;46185;-78
2021/12/23 14:05:51;;;;;;;;;24.25;20.75;;;;;9.87;70.47;100415.22;5137278;27;45683;-77